createdAt,value
2022-11-09T00:00:56.951Z,75.57
2022-11-09T00:03:28.792Z,75.63
2022-11-09T00:06:01.948Z,75.69
2022-11-09T00:08:35.141Z,75.62
2022-11-09T00:11:08.810Z,75.70
2022-11-09T00:13:41.731Z,75.62
2022-11-09T00:16:16.621Z,75.59
2022-11-09T00:18:48.748Z,75.73
2022-11-09T00:21:22.327Z,75.72
2022-11-09T00:23:55.037Z,75.68
2022-11-09T00:26:27.592Z,75.63
2022-11-09T00:29:00.057Z,75.71
2022-11-09T00:31:32.142Z,75.55
2022-11-09T00:34:04.252Z,75.57
2022-11-09T00:36:36.215Z,75.61
2022-11-09T00:39:09.639Z,75.65
2022-11-09T00:41:43.442Z,75.43
2022-11-09T00:44:17.836Z,75.52
2022-11-09T00:46:50.265Z,75.49
2022-11-09T00:49:22.135Z,75.55
2022-11-09T00:51:58.730Z,75.58
2022-11-09T00:54:30.625Z,75.55
2022-11-09T00:57:02.483Z,75.48
2022-11-09T00:59:34.467Z,75.56
2022-11-09T01:02:06.414Z,75.55
2022-11-09T01:04:38.886Z,75.51
2022-11-09T01:07:11.277Z,75.58
2022-11-09T01:09:43.272Z,75.57
2022-11-09T01:12:15.129Z,75.60
2022-11-09T01:14:47.329Z,75.61
2022-11-09T01:17:19.142Z,75.56
2022-11-09T01:19:51.033Z,75.52
2022-11-09T01:22:22.882Z,75.56
2022-11-09T01:24:54.708Z,75.53
2022-11-09T01:27:26.535Z,75.50
2022-11-09T01:29:58.398Z,75.51
2022-11-09T01:32:32.434Z,75.47
2022-11-09T01:35:04.339Z,75.50
2022-11-09T01:37:36.298Z,75.50
2022-11-09T01:40:10.497Z,75.45
2022-11-09T01:42:42.663Z,75.36
2022-11-09T01:45:30.173Z,75.44
2022-11-09T01:48:07.293Z,75.25
2022-11-09T01:50:47.995Z,75.30
2022-11-09T01:53:23.546Z,75.36
2022-11-09T01:55:59.219Z,75.31
2022-11-09T01:58:35.327Z,75.36
2022-11-09T02:01:11.397Z,75.36
2022-11-09T02:03:46.673Z,75.21
2022-11-09T02:06:21.526Z,75.19
2022-11-09T02:08:55.547Z,75.20
2022-11-09T02:11:30.365Z,75.10
2022-11-09T02:14:04.483Z,75.14
2022-11-09T02:16:36.994Z,75.08
2022-11-09T02:19:08.865Z,74.98
2022-11-09T02:21:40.816Z,75.05
2022-11-09T02:24:13.658Z,75.04
2022-11-09T02:26:49.631Z,75.06
2022-11-09T02:29:24.754Z,75.08
2022-11-09T02:32:02.579Z,75.07
2022-11-09T02:34:35.917Z,74.97
2022-11-09T02:37:07.855Z,75.05
2022-11-09T02:39:40.054Z,75.07
2022-11-09T02:42:21.007Z,75.07
2022-11-09T02:44:57.687Z,75.02
2022-11-09T02:47:29.740Z,74.99
2022-11-09T02:50:01.578Z,74.97
2022-11-09T02:52:34.085Z,75.01
2022-11-09T02:55:06.374Z,74.95
2022-11-09T02:57:38.257Z,75.03
2022-11-09T03:00:13.115Z,75.04
2022-11-09T03:02:45.316Z,75.07
2022-11-09T03:05:17.449Z,75.04
2022-11-09T03:07:49.632Z,74.99
2022-11-09T03:10:22.893Z,75.01
2022-11-09T03:12:55.104Z,74.93
2022-11-09T03:15:26.944Z,74.89
2022-11-09T03:17:58.918Z,74.89
2022-11-09T03:20:30.801Z,75.00
2022-11-09T03:23:02.985Z,74.89
2022-11-09T03:25:35.016Z,74.95
2022-11-09T03:28:08.966Z,74.97
2022-11-09T03:30:40.821Z,74.82
2022-11-09T03:33:14.425Z,74.81
2022-11-09T03:35:46.249Z,74.83
2022-11-09T03:38:18.152Z,74.74
2022-11-09T03:40:50.084Z,74.74
2022-11-09T03:43:22.150Z,74.75
2022-11-09T03:45:54.391Z,74.78
2022-11-09T03:48:26.325Z,74.80
2022-11-09T03:50:58.138Z,74.72
2022-11-09T03:53:30.116Z,74.78
2022-11-09T03:56:01.936Z,74.71
2022-11-09T03:58:33.882Z,74.64
2022-11-09T04:01:05.799Z,74.65
2022-11-09T04:03:37.833Z,74.62
2022-11-09T04:06:10.407Z,74.69
2022-11-09T04:08:45.763Z,74.61
2022-11-09T04:11:20.728Z,74.67
2022-11-09T04:13:52.807Z,74.75
2022-11-09T04:16:24.650Z,74.68
2022-11-09T04:18:56.795Z,74.71
2022-11-09T04:21:28.629Z,74.65
2022-11-09T04:24:00.467Z,74.73
2022-11-09T04:26:32.416Z,74.75
2022-11-09T04:29:04.357Z,74.67
2022-11-09T04:31:36.171Z,74.77
2022-11-09T04:34:07.994Z,74.76
2022-11-09T04:36:39.865Z,74.72
2022-11-09T04:39:11.815Z,74.78
2022-11-09T04:41:43.599Z,74.84
2022-11-09T04:44:15.551Z,74.64
2022-11-09T04:46:47.381Z,74.74
2022-11-09T04:49:19.409Z,74.74
2022-11-09T04:51:51.320Z,74.83
2022-11-09T04:54:23.193Z,74.71
2022-11-09T04:56:55.162Z,74.84
2022-11-09T04:59:26.975Z,74.91
2022-11-09T05:01:58.816Z,74.86
2022-11-09T05:04:30.727Z,74.84
2022-11-09T05:07:02.918Z,74.86
2022-11-09T05:09:34.883Z,74.94
2022-11-09T05:12:07.227Z,74.98
2022-11-09T05:14:39.217Z,75.02
2022-11-09T05:17:11.076Z,75.08
2022-11-09T05:19:42.956Z,75.11
2022-11-09T05:22:32.768Z,74.98
2022-11-09T05:25:04.838Z,75.03
2022-11-09T05:27:36.681Z,75.05
2022-11-09T05:30:22.820Z,75.01
2022-11-09T05:32:54.926Z,75.19
2022-11-09T05:35:26.848Z,75.04
2022-11-09T05:37:59.123Z,75.03
2022-11-09T05:40:31.008Z,74.94
2022-11-09T05:43:02.791Z,74.96
2022-11-09T05:45:43.687Z,75.03
2022-11-09T05:48:17.415Z,74.96
2022-11-09T05:50:49.275Z,74.95
2022-11-09T05:53:21.425Z,74.90
2022-11-09T05:55:55.291Z,74.89
2022-11-09T05:58:27.119Z,74.86
2022-11-09T06:00:59.977Z,74.88
2022-11-09T06:03:31.783Z,74.78
2022-11-09T06:06:09.171Z,74.80
2022-11-09T06:08:41.441Z,74.76
2022-11-09T06:11:21.889Z,74.73
2022-11-09T06:13:56.006Z,74.71
2022-11-09T06:16:28.040Z,74.70
2022-11-09T06:18:59.993Z,74.67
2022-11-09T06:21:31.823Z,74.69
2022-11-09T06:24:03.673Z,74.64
2022-11-09T06:26:35.527Z,74.64
2022-11-09T06:29:07.806Z,74.68
2022-11-09T06:31:39.691Z,74.58
2022-11-09T06:34:11.784Z,74.49
2022-11-09T06:36:43.886Z,74.48
2022-11-09T06:39:15.967Z,74.43
2022-11-09T06:41:47.942Z,74.49
2022-11-09T06:44:19.801Z,74.60
2022-11-09T06:46:51.760Z,74.55
2022-11-09T06:49:23.428Z,74.49
2022-11-09T06:51:55.054Z,74.32
2022-11-09T06:54:26.715Z,74.22
2022-11-09T06:56:58.535Z,74.25
2022-11-09T06:59:30.254Z,74.31
2022-11-09T07:02:02.347Z,74.15
2022-11-09T07:04:34.508Z,74.04
2022-11-09T07:07:06.285Z,73.89
2022-11-09T07:09:37.943Z,73.78
2022-11-09T07:12:10.537Z,73.62
2022-11-09T07:14:42.178Z,73.55
2022-11-09T07:17:13.843Z,73.40
2022-11-09T07:19:45.462Z,73.29
2022-11-09T07:22:17.202Z,73.40
2022-11-09T07:24:48.880Z,73.10
2022-11-09T07:27:24.840Z,73.05
2022-11-09T07:29:59.375Z,72.99
2022-11-09T07:33:06.957Z,72.79
2022-11-09T07:35:25.275Z,72.89
2022-11-09T07:38:00.266Z,72.73
2022-11-09T07:40:32.387Z,72.53
2022-11-09T07:43:05.954Z,72.30
2022-11-09T07:45:38.173Z,72.26
2022-11-09T07:48:12.203Z,72.38
2022-11-09T07:50:43.949Z,72.43
2022-11-09T07:53:17.561Z,72.19
2022-11-09T07:55:57.052Z,72.04
2022-11-09T07:58:29.307Z,71.53
2022-11-09T08:01:01.112Z,71.71
2022-11-09T08:03:32.860Z,71.91
2022-11-09T08:06:04.666Z,71.93
2022-11-09T08:08:36.686Z,71.35
2022-11-09T08:11:08.618Z,71.74
2022-11-09T08:13:40.320Z,71.83
2022-11-09T08:16:12.701Z,71.54
2022-11-09T08:18:44.571Z,71.48
2022-11-09T08:21:18.857Z,70.51
2022-11-09T08:23:50.991Z,70.60
2022-11-09T08:26:22.743Z,70.66
2022-11-09T08:28:54.488Z,70.51
2022-11-09T08:31:26.614Z,70.18
2022-11-09T08:33:58.413Z,70.10
2022-11-09T08:36:31.711Z,69.61
2022-11-09T08:39:03.760Z,69.35
2022-11-09T08:41:35.888Z,69.04
2022-11-09T08:44:08.405Z,68.56
2022-11-09T08:46:41.601Z,68.55
2022-11-09T08:49:13.485Z,68.66
2022-11-09T08:51:45.191Z,68.43
2022-11-09T08:54:18.137Z,68.77
2022-11-09T08:56:50.622Z,68.62
2022-11-09T08:59:22.691Z,68.81
2022-11-09T09:01:54.533Z,68.21
2022-11-09T09:04:26.951Z,68.54
2022-11-09T09:07:00.355Z,68.68
2022-11-09T09:09:32.259Z,68.49
2022-11-09T09:12:04.013Z,68.38
2022-11-09T09:14:36.232Z,68.58
2022-11-09T09:17:07.970Z,68.51
2022-11-09T09:19:39.990Z,68.56
2022-11-09T09:22:20.639Z,68.36
2022-11-09T09:24:52.456Z,68.37
2022-11-09T09:28:08.836Z,68.12
2022-11-09T09:30:42.044Z,67.82
2022-11-09T09:33:14.179Z,67.82
2022-11-09T09:35:46.092Z,67.84
2022-11-09T09:38:18.989Z,68.01
2022-11-09T09:40:58.812Z,67.92
2022-11-09T09:43:41.503Z,67.66
2022-11-09T09:46:23.227Z,67.62
2022-11-09T09:48:59.546Z,67.61
2022-11-09T09:51:38.822Z,67.08
2022-11-09T09:54:20.042Z,67.05
2022-11-09T09:56:54.528Z,67.48
2022-11-09T09:59:34.222Z,67.12
2022-11-09T10:02:11.688Z,66.89
2022-11-09T10:04:44.440Z,66.92
2022-11-09T10:07:23.666Z,67.07
2022-11-09T10:18:28.457Z,67.14
2022-11-09T10:21:40.486Z,67.42
2022-11-09T10:24:38.732Z,67.55
2022-11-09T10:27:27.379Z,67.85
2022-11-09T10:30:00.356Z,67.72
2022-11-09T10:32:36.188Z,67.85
2022-11-09T10:35:20.027Z,68.01
2022-11-09T10:37:55.125Z,67.86
2022-11-09T10:40:39.926Z,67.68
2022-11-09T10:43:15.089Z,67.74
2022-11-09T10:45:58.278Z,67.76
2022-11-09T10:48:36.521Z,67.76
2022-11-09T10:51:30.595Z,67.91
2022-11-09T10:54:17.570Z,67.84
2022-11-09T10:57:05.707Z,67.84
2022-11-09T10:59:47.191Z,68.04
2022-11-09T11:02:46.119Z,67.89
2022-11-09T11:05:32.593Z,67.63
2022-11-09T11:08:27.810Z,67.49
2022-11-09T11:11:36.961Z,67.35
2022-11-09T11:14:19.854Z,67.56
2022-11-09T11:16:53.800Z,67.46
2022-11-09T11:19:41.375Z,67.27
2022-11-09T11:22:23.304Z,67.48
2022-11-09T11:24:58.488Z,67.37
2022-11-09T11:27:39.073Z,67.35
2022-11-09T11:30:18.799Z,67.31
2022-11-09T11:32:55.064Z,67.33
2022-11-09T11:35:36.312Z,67.65
2022-11-09T11:38:22.160Z,67.62
2022-11-09T11:41:04.338Z,68.00
2022-11-09T11:43:46.861Z,68.09
2022-11-09T11:46:29.135Z,68.41
2022-11-09T11:49:18.049Z,68.41
2022-11-09T11:51:59.096Z,68.51
2022-11-09T11:54:35.607Z,68.83
2022-11-09T11:57:13.652Z,69.29
2022-11-09T11:59:57.977Z,69.50
2022-11-09T12:02:57.196Z,69.51
2022-11-09T12:06:06.810Z,69.81
2022-11-09T12:08:53.070Z,70.08
2022-11-09T12:16:09.673Z,70.50
2022-11-09T12:29:45.129Z,70.17
2022-11-09T12:32:26.289Z,70.10
2022-11-09T12:35:13.074Z,70.35
2022-11-09T12:37:49.590Z,70.48
2022-11-09T12:40:29.314Z,70.73
2022-11-09T12:43:06.842Z,70.74
2022-11-09T12:45:41.508Z,70.85
2022-11-09T12:48:25.874Z,70.81
2022-11-09T12:50:58.784Z,70.81
2022-11-09T12:53:33.948Z,71.05
2022-11-09T12:56:11.220Z,71.12
2022-11-09T12:58:42.952Z,70.99
2022-11-09T13:01:35.801Z,71.08
2022-11-09T13:04:08.725Z,71.16
2022-11-09T13:06:42.446Z,71.24
2022-11-09T13:09:32.600Z,71.27
2022-11-09T13:12:31.418Z,71.23
2022-11-09T13:15:22.718Z,71.09
2022-11-09T13:18:04.439Z,71.18
2022-11-09T13:20:57.126Z,71.07
2022-11-09T13:26:58.216Z,70.93
2022-11-09T13:29:31.331Z,70.85
2022-11-09T13:32:06.264Z,70.91
2022-11-09T13:34:46.317Z,70.94
2022-11-09T13:37:49.555Z,70.81
2022-11-09T13:40:45.074Z,70.78
2022-11-09T13:43:23.376Z,70.91
2022-11-09T13:45:57.887Z,70.97
2022-11-09T13:48:45.324Z,70.81
2022-11-09T13:51:20.599Z,70.84
2022-11-09T13:53:58.257Z,70.91
2022-11-09T13:56:37.154Z,70.65
2022-11-09T13:59:16.398Z,70.71
2022-11-09T14:01:54.007Z,70.67
2022-11-09T14:04:28.935Z,70.73
2022-11-09T14:07:06.004Z,70.55
2022-11-09T14:09:48.759Z,70.76
2022-11-09T14:12:43.089Z,70.74
2022-11-09T14:15:29.901Z,70.90
2022-11-09T14:18:12.626Z,70.92
2022-11-09T14:20:55.218Z,70.82
2022-11-09T14:23:34.466Z,70.77
2022-11-09T14:26:11.580Z,70.89
2022-11-09T14:28:43.310Z,70.66
2022-11-09T14:31:27.077Z,70.81
2022-11-09T14:34:06.570Z,70.74
2022-11-09T14:36:41.529Z,70.67
2022-11-09T14:39:25.071Z,70.77
2022-11-09T14:42:03.810Z,70.69
2022-11-09T14:44:40.636Z,70.81
2022-11-09T14:47:27.659Z,70.81
2022-11-09T14:50:00.247Z,70.81
2022-11-09T14:52:32.468Z,70.85
2022-11-09T14:55:05.478Z,70.97
2022-11-09T14:57:39.276Z,70.80
2022-11-09T15:00:40.664Z,70.97
2022-11-09T15:03:27.850Z,71.03
2022-11-09T15:06:08.721Z,71.09
2022-11-09T15:08:53.475Z,71.16
2022-11-09T15:11:34.256Z,71.17
2022-11-09T15:14:16.135Z,71.30
2022-11-09T15:16:50.932Z,71.34
2022-11-09T15:19:29.852Z,71.42
2022-11-09T15:22:02.026Z,71.35
2022-11-09T15:24:48.494Z,71.28
2022-11-09T15:27:35.061Z,71.54
2022-11-09T15:30:29.248Z,71.52
2022-11-09T15:33:03.802Z,71.56
2022-11-09T15:35:35.409Z,71.77
2022-11-09T15:38:07.124Z,71.61
2022-11-09T15:40:39.072Z,71.80
2022-11-09T15:43:10.866Z,71.77
2022-11-09T15:45:42.588Z,71.88
2022-11-09T15:48:14.310Z,71.95
2022-11-09T15:50:45.972Z,71.99
2022-11-09T15:53:17.919Z,71.91
2022-11-09T15:55:50.117Z,71.89
2022-11-09T15:58:24.664Z,72.09
2022-11-09T16:00:56.609Z,72.11
2022-11-09T16:03:29.561Z,72.27
2022-11-09T16:06:05.717Z,72.36
2022-11-09T16:08:38.695Z,72.59
2022-11-09T16:11:11.682Z,72.57
2022-11-09T16:13:43.633Z,72.57
2022-11-09T16:16:18.698Z,72.65
2022-11-09T16:18:50.563Z,72.72
2022-11-09T16:21:25.085Z,72.67
2022-11-09T16:23:58.716Z,72.75
2022-11-09T16:26:32.067Z,72.67
2022-11-09T16:29:03.972Z,72.80
2022-11-09T16:31:51.554Z,72.94
2022-11-09T16:34:29.784Z,73.03
2022-11-09T16:37:07.155Z,73.08
2022-11-09T16:39:42.843Z,73.14
2022-11-09T16:42:18.328Z,73.22
2022-11-09T16:44:51.830Z,73.34
2022-11-09T16:47:25.812Z,73.32
2022-11-09T16:49:57.474Z,73.29
2022-11-09T16:52:34.727Z,73.38
2022-11-09T16:55:10.322Z,73.57
2022-11-09T16:57:43.349Z,73.53
2022-11-09T17:00:49.089Z,73.59
2022-11-09T17:03:28.207Z,73.61
2022-11-09T17:06:04.010Z,73.70
2022-11-09T17:08:36.045Z,73.73
2022-11-09T17:11:13.619Z,73.83
2022-11-09T17:13:45.329Z,73.79
2022-11-09T17:16:22.971Z,73.87
2022-11-09T17:18:59.017Z,73.98
2022-11-09T17:21:33.165Z,74.05
2022-11-09T17:24:06.487Z,74.09
2022-11-09T17:26:38.660Z,74.05
2022-11-09T17:29:11.622Z,74.16
2022-11-09T17:31:43.685Z,74.18
2022-11-09T17:34:17.919Z,74.19
2022-11-09T17:37:08.869Z,74.20
2022-11-09T17:39:42.927Z,74.26
2022-11-09T17:42:14.763Z,74.27
2022-11-09T17:44:47.875Z,74.26
2022-11-09T17:47:23.538Z,74.37
2022-11-09T17:49:55.231Z,74.29
2022-11-09T17:52:29.708Z,74.24
2022-11-09T17:55:03.880Z,74.31
2022-11-09T17:57:40.332Z,74.31
2022-11-09T18:00:14.411Z,74.45
2022-11-09T18:02:53.307Z,74.35
2022-11-09T18:05:26.906Z,74.43
2022-11-09T18:08:02.812Z,74.48
2022-11-09T18:10:34.453Z,74.56
2022-11-09T18:13:07.903Z,74.48
2022-11-09T18:15:43.500Z,74.47
2022-11-09T18:18:21.314Z,74.52
2022-11-09T18:20:59.372Z,74.53
2022-11-09T18:23:31.009Z,74.51
2022-11-09T18:26:06.459Z,74.61
2022-11-09T18:28:41.555Z,74.58
2022-11-09T18:31:15.215Z,74.60
2022-11-09T18:33:49.802Z,74.60
2022-11-09T18:36:27.406Z,74.58
2022-11-09T18:38:59.196Z,74.55
2022-11-09T18:41:30.946Z,74.62
2022-11-09T18:44:07.419Z,74.59
2022-11-09T18:46:39.053Z,74.64
2022-11-09T18:49:14.190Z,74.64
2022-11-09T18:51:46.887Z,74.59
2022-11-09T18:54:18.701Z,74.57
2022-11-09T18:56:50.560Z,74.61
2022-11-09T18:59:22.376Z,74.59
2022-11-09T19:01:54.278Z,74.58
2022-11-09T19:04:26.384Z,74.62
2022-11-09T19:06:58.187Z,74.67
2022-11-09T19:09:35.541Z,74.69
2022-11-09T19:12:11.579Z,74.67
2022-11-09T19:14:44.793Z,74.64
2022-11-09T19:17:17.689Z,74.71
2022-11-09T19:19:50.192Z,74.72
2022-11-09T19:22:22.149Z,74.81
2022-11-09T19:24:54.154Z,74.82
2022-11-09T19:27:29.010Z,74.68
2022-11-09T19:30:06.272Z,74.85
2022-11-09T19:32:39.928Z,74.77
2022-11-09T19:35:12.249Z,74.83
2022-11-09T19:37:44.264Z,74.94
2022-11-09T19:40:23.838Z,74.89
2022-11-09T19:42:55.618Z,74.95
2022-11-09T19:45:27.501Z,74.95
2022-11-09T19:47:59.302Z,74.86
2022-11-09T19:50:31.041Z,74.87
2022-11-09T19:53:02.950Z,74.90
2022-11-09T19:55:34.878Z,74.91
2022-11-09T19:58:06.828Z,74.82
2022-11-09T20:00:40.635Z,74.90
2022-11-09T20:03:12.574Z,74.82
2022-11-09T20:05:44.467Z,74.90
2022-11-09T20:08:17.850Z,74.88
2022-11-09T20:10:49.721Z,74.84
2022-11-09T20:13:22.936Z,74.90
2022-11-09T20:15:54.643Z,74.90
2022-11-09T20:18:26.585Z,74.83
2022-11-09T20:20:59.255Z,75.03
2022-11-09T20:23:30.964Z,74.97
2022-11-09T20:26:09.174Z,74.99
2022-11-09T20:28:41.031Z,75.02
2022-11-09T20:31:14.293Z,74.99
2022-11-09T20:33:46.165Z,74.87
2022-11-09T20:36:19.032Z,75.04
2022-11-09T20:38:51.081Z,75.16
2022-11-09T20:41:25.344Z,75.17
2022-11-09T20:43:58.506Z,75.24
2022-11-09T20:46:35.757Z,75.28
2022-11-09T20:49:09.260Z,75.37
2022-11-09T20:51:41.276Z,75.22
2022-11-09T20:54:13.035Z,75.33
2022-11-09T20:56:45.796Z,75.43
2022-11-09T20:59:17.468Z,75.34
2022-11-09T21:01:49.367Z,75.36
2022-11-09T21:04:23.466Z,75.27
2022-11-09T21:06:55.667Z,75.41
2022-11-09T21:09:27.993Z,75.42
2022-11-09T21:12:17.971Z,75.33
2022-11-09T21:14:50.028Z,75.31
2022-11-09T21:17:22.524Z,75.37
2022-11-09T21:19:54.812Z,75.60
2022-11-09T21:22:47.259Z,75.70
2022-11-09T21:25:37.129Z,75.77
2022-11-09T21:28:34.109Z,75.79
2022-11-09T21:31:06.611Z,75.71
2022-11-09T21:33:38.633Z,75.75
2022-11-09T21:36:12.316Z,75.83
2022-11-09T21:38:45.014Z,75.81
2022-11-09T21:41:34.300Z,75.79
2022-11-09T21:44:06.687Z,75.80
2022-11-09T21:48:07.391Z,75.76
2022-11-09T21:52:53.471Z,75.89
2022-11-09T22:02:28.334Z,75.77
2022-11-09T22:05:00.033Z,75.86
2022-11-09T22:07:35.573Z,75.78
2022-11-09T22:10:11.779Z,75.65
2022-11-09T22:13:15.860Z,75.72
2022-11-09T22:16:06.312Z,75.77
2022-11-09T22:18:57.135Z,75.75
2022-11-09T22:21:28.872Z,75.70
2022-11-09T22:24:00.783Z,75.90
2022-11-09T22:26:33.217Z,75.88
2022-11-09T22:29:05.276Z,76.05
2022-11-09T22:31:36.996Z,76.14
2022-11-09T22:34:08.631Z,76.34
2022-11-09T22:36:40.787Z,76.39
2022-11-09T22:39:12.451Z,76.27
2022-11-09T22:41:44.317Z,76.28
2022-11-09T22:44:16.014Z,76.26
2022-11-09T22:46:48.626Z,76.28
2022-11-09T22:49:20.254Z,76.25
2022-11-09T22:51:54.334Z,76.14
2022-11-09T22:54:26.185Z,76.06
2022-11-09T22:56:57.835Z,76.12
2022-11-09T22:59:29.577Z,76.07
2022-11-09T23:02:01.375Z,76.09
2022-11-09T23:04:33.222Z,76.15
2022-11-09T23:07:05.097Z,76.01
2022-11-09T23:09:36.821Z,76.06
2022-11-09T23:12:08.791Z,76.04
2022-11-09T23:14:57.964Z,75.93
2022-11-09T23:17:47.251Z,75.95
2022-11-09T23:20:19.975Z,76.01
2022-11-09T23:22:55.906Z,75.84
2022-11-09T23:25:44.868Z,75.92
2022-11-09T23:28:17.134Z,75.98
2022-11-09T23:30:48.893Z,75.91
2022-11-09T23:33:21.039Z,75.83
2022-11-09T23:35:53.011Z,75.82
2022-11-09T23:38:25.344Z,75.78
2022-11-09T23:40:57.111Z,75.80
2022-11-09T23:43:28.821Z,75.86
2022-11-09T23:46:03.684Z,75.87
2022-11-09T23:48:35.560Z,75.82
2022-11-09T23:51:09.085Z,75.90
2022-11-09T23:53:41.292Z,75.89
2022-11-09T23:56:14.528Z,75.87
2022-11-09T23:58:51.641Z,75.92
